createdAt,value
2019-03-25T00:02:08.491Z,12.83
2019-03-25T00:04:39.512Z,12.17
2019-03-25T00:07:10.403Z,14.07
2019-03-25T00:09:41.234Z,15.23
2019-03-25T00:12:12.134Z,15.27
2019-03-25T00:14:42.970Z,15.40
2019-03-25T00:17:13.889Z,16.17
2019-03-25T00:19:44.815Z,17.63
2019-03-25T00:22:15.715Z,14.73
2019-03-25T00:24:46.607Z,13.07
2019-03-25T00:27:17.581Z,12.20
2019-03-25T00:29:48.407Z,13.90
2019-03-25T00:32:19.295Z,12.60
2019-03-25T00:34:50.203Z,13.77
2019-03-25T00:37:21.187Z,13.47
2019-03-25T00:39:52.031Z,12.17
2019-03-25T00:42:22.934Z,11.50
2019-03-25T00:44:53.826Z,10.53
2019-03-25T00:47:24.716Z,11.00
2019-03-25T00:49:55.633Z,12.00
2019-03-25T00:52:26.517Z,10.83
2019-03-25T00:54:57.627Z,9.90
2019-03-25T00:57:28.459Z,10.23
2019-03-25T00:59:59.339Z,11.20
2019-03-25T01:02:30.244Z,9.43
2019-03-25T01:05:01.132Z,13.07
2019-03-25T01:07:32.035Z,10.80
2019-03-25T01:10:02.828Z,9.83
2019-03-25T01:12:33.751Z,9.53
2019-03-25T01:15:04.595Z,9.50
2019-03-25T01:17:35.483Z,10.60
2019-03-25T01:20:06.993Z,8.77
2019-03-25T01:22:37.851Z,8.60
2019-03-25T01:25:08.819Z,9.63
2019-03-25T01:27:39.695Z,9.73
2019-03-25T01:30:10.931Z,8.53
2019-03-25T01:32:41.811Z,9.03
2019-03-25T01:35:12.719Z,9.33
2019-03-25T01:37:44.551Z,9.57
2019-03-25T01:40:15.390Z,10.60
2019-03-25T01:42:46.279Z,9.57
2019-03-25T01:45:17.158Z,8.00
2019-03-25T01:47:48.123Z,9.40
2019-03-25T01:50:19.006Z,10.10
2019-03-25T01:52:49.900Z,10.93
2019-03-25T01:55:20.845Z,11.07
2019-03-25T01:57:51.959Z,11.10
2019-03-25T02:00:22.872Z,10.90
2019-03-25T02:02:53.763Z,10.27
2019-03-25T02:05:24.666Z,11.97
2019-03-25T02:07:55.393Z,11.17
2019-03-25T02:10:26.183Z,10.13
2019-03-25T02:12:57.004Z,9.33
2019-03-25T02:15:27.918Z,9.60
2019-03-25T02:17:58.815Z,11.77
2019-03-25T02:20:29.719Z,11.27
2019-03-25T02:23:00.802Z,9.30
2019-03-25T02:25:31.714Z,8.50
2019-03-25T02:28:02.613Z,8.93
2019-03-25T02:30:33.493Z,8.90
2019-03-25T02:33:04.417Z,9.90
2019-03-25T02:35:35.328Z,9.93
2019-03-25T02:38:06.235Z,8.33
2019-03-25T02:40:37.122Z,8.87
2019-03-25T02:43:08.062Z,9.00
2019-03-25T02:45:38.964Z,8.50
2019-03-25T02:48:09.852Z,9.23
2019-03-25T02:50:40.743Z,8.70
2019-03-25T02:53:11.628Z,10.90
2019-03-25T02:55:42.811Z,10.27
2019-03-25T02:58:13.722Z,9.37
2019-03-25T03:00:44.641Z,12.10
2019-03-25T03:03:15.502Z,10.17
2019-03-25T03:05:46.414Z,11.47
2019-03-25T03:08:17.374Z,12.03
2019-03-25T03:10:48.250Z,17.00
2019-03-25T03:13:19.130Z,18.23
2019-03-25T03:15:50.035Z,15.07
2019-03-25T03:18:20.953Z,10.10
2019-03-25T03:20:51.935Z,12.70
2019-03-25T03:23:22.850Z,10.60
2019-03-25T03:25:57.738Z,10.43
2019-03-25T03:28:26.277Z,9.53
2019-03-25T03:30:57.236Z,10.63
2019-03-25T03:33:28.029Z,11.83
2019-03-25T03:35:58.978Z,11.03
2019-03-25T03:38:29.814Z,10.53
2019-03-25T03:41:00.919Z,10.17
2019-03-25T03:43:31.796Z,10.27
2019-03-25T03:46:02.713Z,10.20
2019-03-25T03:48:33.580Z,8.77
2019-03-25T03:51:04.522Z,10.73
2019-03-25T03:53:35.604Z,9.37
2019-03-25T03:56:13.712Z,9.50
2019-03-25T03:58:40.630Z,9.07
2019-03-25T04:01:15.535Z,8.93
2019-03-25T04:03:46.484Z,9.30
2019-03-25T04:06:17.363Z,10.70
2019-03-25T04:08:48.326Z,9.30
2019-03-25T04:11:19.200Z,10.57
2019-03-25T04:13:50.127Z,10.37
2019-03-25T04:16:21.119Z,9.47
2019-03-25T04:18:52.001Z,9.60
2019-03-25T04:21:22.887Z,9.30
2019-03-25T04:23:53.776Z,11.03
2019-03-25T04:26:28.937Z,8.33
2019-03-25T04:28:57.237Z,9.23
2019-03-25T04:31:28.137Z,9.97
2019-03-25T04:33:59.035Z,10.50
2019-03-25T04:36:29.925Z,10.43
2019-03-25T04:39:00.859Z,10.33
2019-03-25T04:41:31.645Z,10.90
2019-03-25T04:44:02.934Z,8.70
2019-03-25T04:46:33.746Z,10.47
2019-03-25T04:49:04.602Z,9.37
2019-03-25T04:51:35.476Z,9.47
2019-03-25T04:54:06.351Z,10.37
2019-03-25T04:56:39.989Z,10.63
2019-03-25T04:59:09.743Z,10.10
2019-03-25T05:01:40.654Z,11.27
2019-03-25T05:04:11.441Z,13.43
2019-03-25T05:06:42.333Z,11.60
2019-03-25T05:09:13.146Z,9.60
2019-03-25T05:11:44.128Z,10.87
2019-03-25T05:14:15.046Z,12.30
2019-03-25T05:16:45.955Z,12.83
2019-03-25T05:19:16.863Z,13.40
2019-03-25T05:21:47.791Z,11.27
2019-03-25T05:24:18.671Z,9.40
2019-03-25T05:26:51.331Z,12.03
2019-03-25T05:29:22.070Z,12.13
2019-03-25T05:31:52.959Z,16.00
2019-03-25T05:34:23.857Z,13.97
2019-03-25T05:36:54.746Z,14.17
2019-03-25T05:39:25.601Z,10.43
2019-03-25T05:41:56.482Z,12.30
2019-03-25T05:44:27.455Z,14.07
2019-03-25T05:46:58.255Z,10.80
2019-03-25T05:49:29.254Z,9.40
2019-03-25T05:52:00.130Z,9.10
2019-03-25T05:54:31.038Z,10.90
2019-03-25T05:57:02.927Z,13.00
2019-03-25T05:59:33.911Z,11.80
2019-03-25T06:02:04.794Z,11.20
2019-03-25T06:04:35.695Z,10.67
2019-03-25T06:07:06.494Z,9.80
2019-03-25T06:09:37.391Z,9.67
2019-03-25T06:12:08.214Z,9.37
2019-03-25T06:14:39.070Z,11.40
2019-03-25T06:17:09.990Z,10.53
2019-03-25T06:19:42.326Z,11.17
2019-03-25T06:22:13.232Z,11.57
2019-03-25T06:24:44.175Z,9.70
2019-03-25T06:27:15.346Z,12.07
2019-03-25T06:29:46.225Z,11.70
2019-03-25T06:32:17.102Z,12.43
2019-03-25T06:34:47.995Z,10.40
2019-03-25T06:37:19.132Z,11.77
2019-03-25T06:39:49.947Z,11.00
2019-03-25T06:42:20.855Z,11.73
2019-03-25T06:44:51.740Z,10.90
2019-03-25T06:47:22.643Z,12.27
2019-03-25T06:49:53.463Z,12.03
2019-03-25T06:52:24.267Z,13.80
2019-03-25T06:54:55.186Z,11.13
2019-03-25T06:57:26.158Z,13.57
2019-03-25T06:59:57.018Z,13.47
2019-03-25T07:02:27.902Z,21.73
2019-03-25T07:04:58.804Z,17.40
2019-03-25T07:07:29.699Z,19.63
2019-03-25T07:10:00.597Z,18.33
2019-03-25T07:12:31.620Z,23.43
2019-03-25T07:15:02.575Z,23.97
2019-03-25T07:17:33.487Z,24.90
2019-03-25T07:20:04.578Z,18.37
2019-03-25T07:22:35.622Z,16.47
2019-03-25T07:25:06.538Z,15.23
2019-03-25T07:27:37.519Z,16.27
2019-03-25T07:30:08.450Z,27.87
2019-03-25T07:32:39.288Z,36.47
2019-03-25T07:35:10.283Z,29.03
2019-03-25T07:37:41.183Z,16.47
2019-03-25T07:40:12.375Z,18.77
2019-03-25T07:42:43.190Z,30.87
2019-03-25T07:45:14.319Z,28.07
2019-03-25T07:47:45.140Z,31.90
2019-03-25T07:50:16.142Z,46.90
2019-03-25T07:52:46.961Z,30.20
2019-03-25T07:55:17.887Z,26.67
2019-03-25T07:57:48.886Z,72.70
2019-03-25T08:00:20.208Z,39.90
2019-03-25T08:02:51.121Z,63.03
2019-03-25T08:05:22.006Z,44.53
2019-03-25T08:07:52.932Z,33.90
2019-03-25T08:10:34.026Z,27.97
2019-03-25T08:13:05.160Z,28.80
2019-03-25T08:15:36.175Z,25.50
2019-03-25T08:18:07.145Z,28.60
2019-03-25T08:20:38.031Z,31.87
2019-03-25T08:23:08.853Z,33.33
2019-03-25T08:25:39.767Z,34.13
2019-03-25T08:28:10.666Z,34.77
2019-03-25T08:30:41.574Z,34.57
2019-03-25T08:33:12.393Z,38.77
2019-03-25T08:35:43.280Z,38.63
2019-03-25T08:38:14.187Z,41.57
2019-03-25T08:40:45.031Z,39.43
2019-03-25T08:43:15.934Z,39.97
2019-03-25T08:45:46.778Z,41.23
2019-03-25T08:48:17.683Z,38.17
2019-03-25T08:50:48.547Z,40.20
2019-03-25T08:53:19.446Z,37.03
2019-03-25T08:55:50.264Z,40.33
2019-03-25T08:58:21.171Z,39.73
2019-03-25T09:00:52.003Z,38.47
2019-03-25T09:03:22.838Z,42.43
2019-03-25T09:05:53.655Z,39.00
2019-03-25T09:08:24.566Z,39.43
2019-03-25T09:10:55.410Z,40.47
2019-03-25T09:13:26.303Z,38.13
2019-03-25T09:15:57.138Z,37.40
2019-03-25T09:18:27.959Z,37.70
2019-03-25T09:20:58.902Z,35.77
2019-03-25T09:23:29.788Z,34.13
2019-03-25T09:26:00.991Z,36.13
2019-03-25T09:28:31.815Z,38.00
2019-03-25T09:31:08.378Z,36.20
2019-03-25T09:33:39.351Z,37.07
2019-03-25T09:36:10.365Z,36.70
2019-03-25T09:38:41.421Z,37.10
2019-03-25T09:41:13.346Z,40.67
2019-03-25T09:43:44.468Z,40.90
2019-03-25T09:46:15.523Z,40.23
2019-03-25T09:48:46.535Z,40.90
2019-03-25T09:51:19.131Z,47.87
2019-03-25T09:53:50.031Z,48.37
2019-03-25T09:56:20.980Z,41.00
2019-03-25T09:58:51.870Z,45.90
2019-03-25T10:01:22.774Z,44.83
2019-03-25T10:03:53.658Z,45.07
2019-03-25T10:06:24.500Z,44.07
2019-03-25T10:08:55.403Z,46.10
2019-03-25T10:11:26.279Z,44.83
2019-03-25T10:13:57.202Z,46.20
2019-03-25T10:16:28.039Z,43.90
2019-03-25T10:18:59.004Z,44.40
2019-03-25T10:21:29.887Z,47.63
2019-03-25T10:24:00.829Z,44.97
2019-03-25T10:26:31.785Z,42.80
2019-03-25T10:29:02.594Z,42.40
2019-03-25T10:31:33.415Z,45.20
2019-03-25T10:34:04.250Z,44.83
2019-03-25T10:36:35.068Z,46.13
2019-03-25T10:39:07.745Z,43.57
2019-03-25T10:41:38.711Z,40.53
2019-03-25T10:44:09.585Z,44.17
2019-03-25T10:46:40.405Z,44.10
2019-03-25T10:49:11.315Z,52.97
2019-03-25T10:51:42.211Z,52.53
2019-03-25T10:54:13.039Z,44.67
2019-03-25T10:56:49.103Z,43.70
2019-03-25T10:59:16.450Z,44.00
2019-03-25T11:01:47.279Z,45.63
2019-03-25T11:04:18.166Z,38.80
2019-03-25T11:06:48.998Z,40.77
2019-03-25T11:09:19.895Z,38.53
2019-03-25T11:11:50.739Z,37.07
2019-03-25T11:14:21.651Z,38.67
2019-03-25T11:16:52.562Z,40.03
2019-03-25T11:19:23.471Z,39.47
2019-03-25T11:21:54.287Z,38.93
2019-03-25T11:24:25.140Z,39.10
2019-03-25T11:26:56.105Z,40.60
2019-03-25T11:29:26.945Z,41.40
2019-03-25T11:31:57.883Z,43.40
2019-03-25T11:34:28.727Z,37.00
2019-03-25T11:36:59.634Z,41.17
2019-03-25T11:39:30.473Z,39.70
2019-03-25T11:42:01.363Z,37.50
2019-03-25T11:44:32.303Z,39.23
2019-03-25T11:47:03.130Z,38.27
2019-03-25T11:49:34.015Z,36.33
2019-03-25T11:52:04.926Z,39.17
2019-03-25T11:54:35.744Z,38.93
2019-03-25T11:57:06.665Z,36.90
2019-03-25T11:59:37.591Z,37.37
2019-03-25T12:02:17.271Z,38.30
2019-03-25T12:04:41.044Z,36.03
2019-03-25T12:07:11.922Z,38.23
2019-03-25T12:09:45.761Z,38.63
2019-03-25T12:12:16.671Z,37.93
2019-03-25T12:14:47.622Z,38.33
2019-03-25T12:17:18.562Z,36.77
2019-03-25T12:19:49.403Z,35.10
2019-03-25T12:22:20.295Z,35.03
2019-03-25T12:24:51.407Z,33.93
2019-03-25T12:27:22.349Z,33.00
2019-03-25T12:29:53.291Z,37.33
2019-03-25T12:32:24.239Z,35.30
2019-03-25T12:34:55.132Z,36.63
2019-03-25T12:37:26.035Z,41.47
2019-03-25T12:39:56.902Z,43.30
2019-03-25T12:42:27.799Z,44.83
2019-03-25T12:44:58.706Z,38.50
2019-03-25T12:47:29.599Z,37.70
2019-03-25T12:50:00.539Z,42.87
2019-03-25T12:52:31.256Z,41.37
2019-03-25T12:55:02.304Z,40.07
2019-03-25T12:57:33.211Z,42.63
2019-03-25T13:00:04.171Z,41.37
2019-03-25T13:02:35.079Z,39.27
2019-03-25T13:05:06.161Z,41.73
2019-03-25T13:07:37.070Z,40.73
2019-03-25T13:10:08.215Z,14.77
2019-03-25T13:12:39.131Z,10.17
2019-03-25T13:15:10.016Z,10.17
2019-03-25T13:17:41.182Z,10.47
2019-03-25T13:20:12.146Z,8.33
2019-03-25T13:22:43.010Z,10.17
2019-03-25T13:25:13.942Z,137.33
2019-03-25T13:27:44.853Z,9.83
2019-03-25T13:30:15.909Z,12.53
2019-03-25T13:32:46.842Z,15.93
2019-03-25T13:35:17.759Z,15.77
2019-03-25T13:37:48.619Z,8.43
2019-03-25T13:40:19.523Z,24.93
2019-03-25T13:42:50.419Z,21.53
2019-03-25T13:45:21.401Z,4.47
2019-03-25T13:47:52.303Z,8.17
2019-03-25T13:50:23.198Z,6.63
2019-03-25T13:52:54.072Z,13.50
2019-03-25T13:55:26.683Z,13.73
2019-03-25T13:57:57.675Z,13.07
2019-03-25T14:00:39.110Z,5.37
2019-03-25T14:03:10.897Z,3.80
2019-03-25T14:05:41.798Z,6.53
2019-03-25T14:08:12.623Z,4.37
2019-03-25T14:10:43.514Z,7.10
2019-03-25T14:13:14.527Z,4.63
2019-03-25T14:15:45.339Z,7.07
2019-03-25T14:18:16.298Z,3.77
2019-03-25T14:20:47.126Z,2.90
2019-03-25T14:23:18.047Z,2.83
2019-03-25T14:25:48.981Z,3.60
2019-03-25T14:28:19.863Z,2.67
2019-03-25T14:30:50.778Z,5.30
2019-03-25T14:33:21.679Z,2.90
2019-03-25T14:35:52.852Z,9.77
2019-03-25T14:38:23.739Z,13.20
2019-03-25T14:40:54.616Z,8.20
2019-03-25T14:43:25.531Z,3.03
2019-03-25T14:45:56.334Z,2.50
2019-03-25T14:48:27.163Z,3.60
2019-03-25T14:50:58.042Z,3.40
2019-03-25T14:53:29.018Z,3.90
2019-03-25T14:55:59.855Z,5.17
2019-03-25T14:58:30.770Z,10.47
2019-03-25T15:01:01.695Z,14.17
2019-03-25T15:03:32.578Z,3.40
2019-03-25T15:06:03.413Z,30.87
2019-03-25T15:08:34.230Z,4.30
2019-03-25T15:11:05.111Z,9.10
2019-03-25T15:13:35.998Z,4.73
2019-03-25T15:16:06.824Z,3.73
2019-03-25T15:18:37.731Z,5.93
2019-03-25T15:21:08.602Z,4.53
2019-03-25T15:23:39.523Z,3.27
2019-03-25T15:26:10.473Z,4.83
2019-03-25T15:28:41.291Z,2.67
2019-03-25T15:31:14.023Z,3.90
2019-03-25T15:33:44.938Z,5.67
2019-03-25T15:36:15.771Z,5.53
2019-03-25T15:38:46.650Z,5.07
2019-03-25T15:41:17.679Z,5.47
2019-03-25T15:43:48.674Z,4.03
2019-03-25T15:46:19.502Z,4.63
2019-03-25T15:48:50.390Z,4.47
2019-03-25T15:51:21.195Z,4.30
2019-03-25T15:53:52.091Z,4.37
2019-03-25T15:56:22.982Z,5.53
2019-03-25T15:58:53.811Z,5.90
2019-03-25T16:01:24.803Z,4.20
2019-03-25T16:03:55.755Z,5.63
2019-03-25T16:06:26.619Z,4.80
2019-03-25T16:08:57.528Z,4.77
2019-03-25T16:11:28.404Z,5.80
2019-03-25T16:13:59.331Z,3.83
2019-03-25T16:16:30.217Z,3.60
2019-03-25T16:19:01.120Z,3.80
2019-03-25T16:21:32.026Z,5.73
2019-03-25T16:24:02.928Z,7.83
2019-03-25T16:26:33.826Z,5.23
2019-03-25T16:29:04.702Z,3.97
2019-03-25T16:31:35.627Z,5.07
2019-03-25T16:34:06.482Z,4.73
2019-03-25T16:36:37.378Z,4.40
2019-03-25T16:39:08.722Z,5.97
2019-03-25T16:41:39.526Z,4.50
2019-03-25T16:44:10.418Z,6.63
2019-03-25T16:46:41.406Z,5.97
2019-03-25T16:49:12.305Z,8.03
2019-03-25T16:51:43.239Z,8.80
2019-03-25T16:54:14.126Z,6.60
2019-03-25T16:56:45.047Z,11.60
2019-03-25T16:59:15.938Z,6.90
2019-03-25T17:01:46.742Z,5.93
2019-03-25T17:04:17.575Z,4.73
2019-03-25T17:06:48.418Z,5.13
2019-03-25T17:09:19.223Z,3.27
2019-03-25T17:11:50.357Z,4.17
2019-03-25T17:14:21.231Z,4.83
2019-03-25T17:16:52.238Z,4.83
2019-03-25T17:19:23.058Z,5.33
2019-03-25T17:21:58.305Z,4.93
2019-03-25T17:24:26.390Z,4.93
2019-03-25T17:26:57.378Z,4.83
2019-03-25T17:29:28.184Z,4.47
2019-03-25T17:31:59.093Z,3.50
2019-03-25T17:34:29.998Z,4.30
2019-03-25T17:37:00.878Z,4.57
2019-03-25T17:39:31.774Z,3.50
2019-03-25T17:42:02.583Z,4.00
2019-03-25T17:44:33.407Z,5.47
2019-03-25T17:47:04.318Z,4.03
2019-03-25T17:49:35.136Z,4.80
2019-03-25T17:52:06.039Z,3.60
2019-03-25T17:54:36.865Z,3.50
2019-03-25T17:57:07.751Z,3.97
2019-03-25T17:59:38.737Z,9.27
2019-03-25T18:02:09.634Z,12.00
2019-03-25T18:04:40.459Z,6.97
2019-03-25T18:07:11.614Z,7.80
2019-03-25T18:09:42.426Z,11.87
2019-03-25T18:12:13.331Z,7.13
2019-03-25T18:14:44.219Z,5.20
2019-03-25T18:17:15.137Z,2.20
2019-03-25T18:19:46.034Z,3.07
2019-03-25T18:22:16.924Z,2.67
2019-03-25T18:24:47.802Z,2.30
2019-03-25T18:27:18.743Z,2.17
2019-03-25T18:29:49.775Z,2.03
2019-03-25T18:32:21.382Z,1.70
2019-03-25T18:34:52.325Z,1.90
2019-03-25T18:37:23.240Z,1.80
2019-03-25T18:39:54.175Z,2.10
2019-03-25T18:42:25.167Z,2.90
2019-03-25T18:44:56.643Z,3.53
2019-03-25T18:47:27.582Z,2.70
2019-03-25T18:49:58.505Z,3.03
2019-03-25T18:52:31.214Z,2.20
2019-03-25T18:55:03.372Z,2.00
2019-03-25T18:57:35.272Z,1.87
2019-03-25T19:00:08.676Z,2.13
2019-03-25T19:02:39.794Z,3.17
2019-03-25T19:05:10.783Z,2.10
2019-03-25T19:07:43.422Z,1.90
2019-03-25T19:10:18.126Z,2.57
2019-03-25T19:12:49.107Z,2.20
2019-03-25T19:15:19.993Z,1.80
2019-03-25T19:17:50.873Z,2.00
2019-03-25T19:20:22.027Z,2.80
2019-03-25T19:22:52.906Z,1.70
2019-03-25T19:25:23.952Z,3.87
2019-03-25T19:27:54.886Z,2.80
2019-03-25T19:30:25.783Z,1.90
2019-03-25T19:32:56.904Z,2.03
2019-03-25T19:35:30.045Z,2.63
2019-03-25T19:38:00.382Z,2.97
2019-03-25T19:40:31.278Z,2.53
2019-03-25T19:43:02.143Z,1.93
2019-03-25T19:45:33.050Z,1.97
2019-03-25T19:48:03.955Z,2.10
2019-03-25T19:50:34.823Z,2.07
2019-03-25T19:53:05.738Z,2.20
2019-03-25T19:55:36.614Z,1.83
2019-03-25T19:58:07.500Z,1.80
2019-03-25T20:00:40.012Z,2.17
2019-03-25T20:03:11.184Z,2.27
2019-03-25T20:05:42.206Z,2.30
2019-03-25T20:08:13.307Z,2.23
2019-03-25T20:10:44.366Z,1.80
2019-03-25T20:13:15.278Z,3.30
2019-03-25T20:15:47.495Z,2.10
2019-03-25T20:18:18.458Z,2.40
2019-03-25T20:20:49.404Z,4.40
2019-03-25T20:23:20.582Z,5.10
2019-03-25T20:25:51.515Z,3.07
2019-03-25T20:28:22.582Z,6.37
2019-03-25T20:30:53.566Z,5.13
2019-03-25T20:33:24.460Z,2.20
2019-03-25T20:35:55.366Z,6.53
2019-03-25T20:38:26.223Z,4.60
2019-03-25T20:40:57.193Z,4.57
2019-03-25T20:43:28.165Z,2.43
2019-03-25T20:45:59.076Z,2.90
2019-03-25T20:48:30.127Z,2.97
2019-03-25T20:51:00.991Z,3.33
2019-03-25T20:53:32.095Z,3.07
2019-03-25T20:56:03.751Z,4.37
2019-03-25T20:58:34.566Z,2.60
2019-03-25T21:01:05.492Z,7.03
2019-03-25T21:03:36.354Z,5.00
2019-03-25T21:06:07.189Z,3.20
2019-03-25T21:08:38.086Z,2.00
2019-03-25T21:11:09.097Z,2.00
2019-03-25T21:13:39.990Z,2.27
2019-03-25T21:16:11.048Z,1.83
2019-03-25T21:18:42.017Z,1.90
2019-03-25T21:21:13.002Z,1.80
2019-03-25T21:23:43.920Z,1.90
2019-03-25T21:26:14.929Z,3.10
2019-03-25T21:28:45.763Z,3.97
2019-03-25T21:31:16.632Z,4.90
2019-03-25T21:33:47.562Z,5.43
2019-03-25T21:36:18.466Z,6.00
2019-03-25T21:38:49.308Z,4.13
2019-03-25T21:41:20.196Z,2.77
2019-03-25T21:43:51.104Z,4.00
2019-03-25T21:46:21.989Z,2.30
2019-03-25T21:48:52.920Z,2.60
2019-03-25T21:51:23.848Z,2.07
2019-03-25T21:53:54.790Z,2.33
2019-03-25T21:56:25.719Z,2.30
2019-03-25T21:58:56.645Z,2.10
2019-03-25T22:01:27.546Z,2.70
2019-03-25T22:03:58.443Z,2.00
2019-03-25T22:06:29.359Z,2.00
2019-03-25T22:09:00.258Z,2.50
2019-03-25T22:11:31.154Z,2.37
2019-03-25T22:14:02.055Z,2.83
2019-03-25T22:16:32.952Z,2.50
2019-03-25T22:19:03.851Z,3.00
2019-03-25T22:21:34.819Z,2.60
2019-03-25T22:24:05.678Z,2.93
2019-03-25T22:26:36.559Z,2.37
2019-03-25T22:29:07.723Z,3.17
2019-03-25T22:31:38.628Z,4.13
2019-03-25T22:34:09.514Z,2.87
2019-03-25T22:36:40.403Z,3.03
2019-03-25T22:39:11.286Z,3.97
2019-03-25T22:41:42.196Z,3.77
2019-03-25T22:44:13.122Z,2.97
2019-03-25T22:46:43.948Z,3.33
2019-03-25T22:49:14.835Z,2.73
2019-03-25T22:51:45.742Z,2.77
2019-03-25T22:54:16.650Z,2.63
2019-03-25T22:56:47.456Z,2.33
2019-03-25T22:59:18.365Z,3.17
2019-03-25T23:01:49.275Z,2.03
2019-03-25T23:04:20.192Z,2.87
2019-03-25T23:06:51.079Z,2.77
2019-03-25T23:09:21.988Z,2.40
2019-03-25T23:11:52.864Z,2.50
2019-03-25T23:14:23.759Z,4.10
2019-03-25T23:16:54.662Z,3.73
2019-03-25T23:19:25.595Z,2.57
2019-03-25T23:21:59.847Z,2.47
2019-03-25T23:24:30.792Z,2.30
2019-03-25T23:27:01.664Z,2.50
2019-03-25T23:29:32.587Z,4.13
2019-03-25T23:32:03.494Z,4.13
2019-03-25T23:34:34.393Z,3.83
2019-03-25T23:37:05.283Z,2.80
2019-03-25T23:39:36.228Z,3.37
2019-03-25T23:42:07.133Z,2.67
2019-03-25T23:44:38.068Z,3.43
2019-03-25T23:47:08.974Z,3.10
2019-03-25T23:49:39.809Z,5.27
2019-03-25T23:52:10.698Z,3.53
2019-03-25T23:54:41.544Z,2.90
2019-03-25T23:57:12.445Z,2.83
2019-03-25T23:59:43.338Z,2.57
